KSLN/SLN METAR and TAF weather

Enter ICAO airport designator
Station Type Date Time Source
KSLN METAR 2020/01/17 14:23 UTC NOAA

KSLN 171423Z 15013G20KT 8SM -FZRA OVC009 01/M01 A3019 RMK AO2 P0001 I1001 T00061011


Station Type Date Time Source
KSLN Decoded METAR 2020/01/17 14:23 UTC NOAA

SALINA MUNICIPAL AIRPORT, KS, United States (KSLN) 38-47N 97-39W 385M
Jan 17, 2020 - 09:23 AM EST / 2020.01.17 1423 UTC
Wind: from the SSE (150 degrees) at 15 MPH (13 KT) gusting to 23 MPH (20 KT):0
Visibility: 8 mile(s):0
Sky conditions: overcast
Weather: light freezing rain
Precipitation last hour: 0.01 inches
Temperature: 33.1 F (0.6 C)
Windchill: 23 F (-5 C):1
Dew Point: 30.0 F (-1.1 C)
Relative Humidity: 88%
Pressure (altimeter): 30.19 in. Hg (1022 hPa)
ob: KSLN 171423Z 15013G20KT 8SM -FZRA OVC009 01/M01 A3019 RMK AO2 P0001 I1001 T00061011
cycle: 14

Station Type Date Time Source
KSLN TAF 2020/01/17 12:42 UTC NOAA

TAF KSLN 171139Z 1712/1812 12015KT 5SM -FZRA BR OVC009
FM171800 17018G26KT P6SM OVC008
FM180000 18017G25KT P6SM OVC003 WS020/21040KT
FM180600 27014G22KT P6SM BKN010

Example: see airport list